sensor_id;sensor_type;location;lat;lon;timestamp;temperature;humidity
19880;DHT22;10102;50.828;4.416;2024-02-14T01:01:52;10.40;99.90
19880;DHT22;10102;50.828;4.416;2024-02-14T01:04:17;10.40;99.90
19880;DHT22;10102;50.828;4.416;2024-02-14T01:06:43;10.50;99.90
19880;DHT22;10102;50.828;4.416;2024-02-14T01:09:09;10.60;99.90
19880;DHT22;10102;50.828;4.416;2024-02-14T01:11:35;10.60;99.90
19880;DHT22;10102;50.828;4.416;2024-02-14T01:16:29;10.50;99.90
19880;DHT22;10102;50.828;4.416;2024-02-14T01:18:55;10.40;99.90
19880;DHT22;10102;50.828;4.416;2024-02-14T01:21:22;10.40;99.90
19880;DHT22;10102;50.828;4.416;2024-02-14T01:23:48;10.50;99.90
19880;DHT22;10102;50.828;4.416;2024-02-14T01:26:13;10.50;99.90
19880;DHT22;10102;50.828;4.416;2024-02-14T01:28:39;10.50;99.90
19880;DHT22;10102;50.828;4.416;2024-02-14T01:31:05;10.50;99.90
19880;DHT22;10102;50.828;4.416;2024-02-14T01:33:31;10.50;99.90
19880;DHT22;10102;50.828;4.416;2024-02-14T01:35:57;10.30;99.90
19880;DHT22;10102;50.828;4.416;2024-02-14T01:38:23;10.40;99.90
19880;DHT22;10102;50.828;4.416;2024-02-14T01:40:49;10.50;99.90
19880;DHT22;10102;50.828;4.416;2024-02-14T01:43:14;10.50;99.90
19880;DHT22;10102;50.828;4.416;2024-02-14T01:45:40;10.60;99.90
19880;DHT22;10102;50.828;4.416;2024-02-14T01:48:07;10.50;99.90
19880;DHT22;10102;50.828;4.416;2024-02-14T01:50:34;10.40;99.90
19880;DHT22;10102;50.828;4.416;2024-02-14T01:53:00;10.50;99.90
19880;DHT22;10102;50.828;4.416;2024-02-14T01:55:27;10.40;99.90
19880;DHT22;10102;50.828;4.416;2024-02-14T01:57:54;10.30;99.90
19880;DHT22;10102;50.828;4.416;2024-02-14T02:00:20;10.30;99.90
19880;DHT22;10102;50.828;4.416;2024-02-14T02:02:46;10.30;99.90
19880;DHT22;10102;50.828;4.416;2024-02-14T02:05:15;10.40;99.90
19880;DHT22;10102;50.828;4.416;2024-02-14T02:07:41;10.50;99.90
19880;DHT22;10102;50.828;4.416;2024-02-14T02:10:12;10.50;99.90
19880;DHT22;10102;50.828;4.416;2024-02-14T02:12:38;10.80;99.90
19880;DHT22;10102;50.828;4.416;2024-02-14T02:15:07;10.50;99.90
19880;DHT22;10102;50.828;4.416;2024-02-14T02:17:36;10.40;99.90
19880;DHT22;10102;50.828;4.416;2024-02-14T02:20:02;10.30;99.90
19880;DHT22;10102;50.828;4.416;2024-02-14T02:27:24;10.40;99.90
19880;DHT22;10102;50.828;4.416;2024-02-14T02:29:49;10.50;99.90
19880;DHT22;10102;50.828;4.416;2024-02-14T02:32:15;10.60;99.90
19880;DHT22;10102;50.828;4.416;2024-02-14T02:34:42;10.50;99.90
19880;DHT22;10102;50.828;4.416;2024-02-14T02:37:08;10.60;99.90
19880;DHT22;10102;50.828;4.416;2024-02-14T02:39:35;10.60;99.90
19880;DHT22;10102;50.828;4.416;2024-02-14T02:42:02;10.60;99.90
19880;DHT22;10102;50.828;4.416;2024-02-14T02:46:55;11.00;99.90
19880;DHT22;10102;50.828;4.416;2024-02-14T02:49:21;10.60;99.90
19880;DHT22;10102;50.828;4.416;2024-02-14T02:51:47;10.70;99.90
19880;DHT22;10102;50.828;4.416;2024-02-14T02:54:14;10.70;99.90
19880;DHT22;10102;50.828;4.416;2024-02-14T02:56:39;10.60;99.90
19880;DHT22;10102;50.828;4.416;2024-02-14T02:59:06;10.60;99.90
19880;DHT22;10102;50.828;4.416;2024-02-14T03:01:38;10.30;99.90
19880;DHT22;10102;50.828;4.416;2024-02-14T03:04:04;10.70;99.90
19880;DHT22;10102;50.828;4.416;2024-02-14T03:06:30;10.70;99.90
19880;DHT22;10102;50.828;4.416;2024-02-14T03:08:56;10.70;99.90
19880;DHT22;10102;50.828;4.416;2024-02-14T03:13:50;11.00;99.90
19880;DHT22;10102;50.828;4.416;2024-02-14T03:16:16;10.60;99.90
19880;DHT22;10102;50.828;4.416;2024-02-14T03:18:43;10.70;99.90
19880;DHT22;10102;50.828;4.416;2024-02-14T03:21:09;10.60;99.90
19880;DHT22;10102;50.828;4.416;2024-02-14T03:23:35;10.60;99.90
19880;DHT22;10102;50.828;4.416;2024-02-14T03:26:00;10.70;99.90
19880;DHT22;10102;50.828;4.416;2024-02-14T03:28:26;10.70;99.90
19880;DHT22;10102;50.828;4.416;2024-02-14T03:30:53;10.80;99.90
19880;DHT22;10102;50.828;4.416;2024-02-14T03:33:18;10.80;99.90
19880;DHT22;10102;50.828;4.416;2024-02-14T03:35:44;10.60;99.90
19880;DHT22;10102;50.828;4.416;2024-02-14T03:40:36;10.60;99.90
19880;DHT22;10102;50.828;4.416;2024-02-14T03:43:04;10.50;99.90
19880;DHT22;10102;50.828;4.416;2024-02-14T03:45:31;10.60;99.90
19880;DHT22;10102;50.828;4.416;2024-02-14T03:50:23;10.80;99.90
19880;DHT22;10102;50.828;4.416;2024-02-14T03:52:50;11.00;99.90
19880;DHT22;10102;50.828;4.416;2024-02-14T03:57:44;10.70;99.90
19880;DHT22;10102;50.828;4.416;2024-02-14T04:00:11;10.80;99.90
19880;DHT22;10102;50.828;4.416;2024-02-14T04:02:37;10.60;99.90
19880;DHT22;10102;50.828;4.416;2024-02-14T04:05:03;10.70;99.90
19880;DHT22;10102;50.828;4.416;2024-02-14T04:07:29;10.70;99.90
19880;DHT22;10102;50.828;4.416;2024-02-14T04:12:21;10.60;99.90
19880;DHT22;10102;50.828;4.416;2024-02-14T04:14:47;10.50;99.90
19880;DHT22;10102;50.828;4.416;2024-02-14T04:17:13;10.50;99.90
19880;DHT22;10102;50.828;4.416;2024-02-14T04:19:40;10.70;99.90
19880;DHT22;10102;50.828;4.416;2024-02-14T04:22:05;10.70;99.90
19880;DHT22;10102;50.828;4.416;2024-02-14T04:24:35;10.70;99.90
19880;DHT22;10102;50.828;4.416;2024-02-14T04:29:30;10.60;99.90
19880;DHT22;10102;50.828;4.416;2024-02-14T04:31:59;10.70;99.90
19880;DHT22;10102;50.828;4.416;2024-02-14T04:34:25;10.70;99.90
19880;DHT22;10102;50.828;4.416;2024-02-14T04:36:50;10.80;99.90
19880;DHT22;10102;50.828;4.416;2024-02-14T04:39:17;10.80;99.90
19880;DHT22;10102;50.828;4.416;2024-02-14T04:41:43;11.10;99.90
19880;DHT22;10102;50.828;4.416;2024-02-14T04:44:08;10.80;99.90
19880;DHT22;10102;50.828;4.416;2024-02-14T04:46:35;10.80;99.90
19880;DHT22;10102;50.828;4.416;2024-02-14T04:49:01;10.80;99.90
19880;DHT22;10102;50.828;4.416;2024-02-14T04:51:30;10.90;99.90
19880;DHT22;10102;50.828;4.416;2024-02-14T04:53:57;11.00;99.90
19880;DHT22;10102;50.828;4.416;2024-02-14T04:56:29;11.00;99.90
19880;DHT22;10102;50.828;4.416;2024-02-14T04:58:54;11.00;99.90
19880;DHT22;10102;50.828;4.416;2024-02-14T05:01:23;11.00;99.90
19880;DHT22;10102;50.828;4.416;2024-02-14T05:03:49;10.80;99.90
19880;DHT22;10102;50.828;4.416;2024-02-14T05:06:15;11.00;99.90
19880;DHT22;10102;50.828;4.416;2024-02-14T05:08:41;11.00;99.90
19880;DHT22;10102;50.828;4.416;2024-02-14T05:11:06;10.90;99.90
19880;DHT22;10102;50.828;4.416;2024-02-14T05:18:24;11.00;99.90
19880;DHT22;10102;50.828;4.416;2024-02-14T05:20:50;10.90;99.90
19880;DHT22;10102;50.828;4.416;2024-02-14T05:23:16;10.90;99.90
19880;DHT22;10102;50.828;4.416;2024-02-14T05:25:43;10.90;99.90
19880;DHT22;10102;50.828;4.416;2024-02-14T05:28:09;10.90;99.90
19880;DHT22;10102;50.828;4.416;2024-02-14T05:30:39;10.90;99.90
19880;DHT22;10102;50.828;4.416;2024-02-14T05:33:05;10.80;99.90
19880;DHT22;10102;50.828;4.416;2024-02-14T05:35:31;11.00;99.90
19880;DHT22;10102;50.828;4.416;2024-02-14T05:37:56;10.90;99.90
19880;DHT22;10102;50.828;4.416;2024-02-14T05:40:22;10.80;99.90
19880;DHT22;10102;50.828;4.416;2024-02-14T05:42:47;10.90;99.90
19880;DHT22;10102;50.828;4.416;2024-02-14T05:45:13;11.00;99.90
19880;DHT22;10102;50.828;4.416;2024-02-14T05:47:39;11.10;99.90
19880;DHT22;10102;50.828;4.416;2024-02-14T05:50:06;11.20;99.90
19880;DHT22;10102;50.828;4.416;2024-02-14T05:52:34;11.30;99.90
19880;DHT22;10102;50.828;4.416;2024-02-14T05:54:59;11.10;99.90
19880;DHT22;10102;50.828;4.416;2024-02-14T05:57:25;11.00;99.90
19880;DHT22;10102;50.828;4.416;2024-02-14T05:59:52;11.60;99.90
19880;DHT22;10102;50.828;4.416;2024-02-14T06:02:18;11.60;99.90
19880;DHT22;10102;50.828;4.416;2024-02-14T06:04:43;11.10;99.90
19880;DHT22;10102;50.828;4.416;2024-02-14T06:07:09;10.70;99.90
19880;DHT22;10102;50.828;4.416;2024-02-14T06:09:37;11.10;99.90
19880;DHT22;10102;50.828;4.416;2024-02-14T06:12:03;11.10;99.90
19880;DHT22;10102;50.828;4.416;2024-02-14T06:14:29;11.10;99.90
19880;DHT22;10102;50.828;4.416;2024-02-14T06:16:56;11.00;99.90
19880;DHT22;10102;50.828;4.416;2024-02-14T06:19:23;11.20;99.90
19880;DHT22;10102;50.828;4.416;2024-02-14T06:21:48;11.10;99.90
19880;DHT22;10102;50.828;4.416;2024-02-14T06:24:14;11.30;99.90
19880;DHT22;10102;50.828;4.416;2024-02-14T06:26:40;11.10;99.90
19880;DHT22;10102;50.828;4.416;2024-02-14T06:29:06;11.20;99.90
19880;DHT22;10102;50.828;4.416;2024-02-14T06:31:32;11.20;99.90
19880;DHT22;10102;50.828;4.416;2024-02-14T06:33:57;11.20;99.90
19880;DHT22;10102;50.828;4.416;2024-02-14T06:36:23;11.30;99.90
19880;DHT22;10102;50.828;4.416;2024-02-14T06:38:49;11.40;99.90
19880;DHT22;10102;50.828;4.416;2024-02-14T06:43:41;11.20;99.90
19880;DHT22;10102;50.828;4.416;2024-02-14T06:46:07;11.40;99.90
19880;DHT22;10102;50.828;4.416;2024-02-14T06:48:33;11.40;99.90
19880;DHT22;10102;50.828;4.416;2024-02-14T06:50:59;11.50;99.90
19880;DHT22;10102;50.828;4.416;2024-02-14T06:53:25;11.50;99.90
19880;DHT22;10102;50.828;4.416;2024-02-14T07:03:10;11.40;99.90
19880;DHT22;10102;50.828;4.416;2024-02-14T07:08:01;11.30;99.90
19880;DHT22;10102;50.828;4.416;2024-02-14T07:10:27;11.40;99.90
19880;DHT22;10102;50.828;4.416;2024-02-14T07:12:52;11.50;99.90
19880;DHT22;10102;50.828;4.416;2024-02-14T07:15:18;11.60;99.90
19880;DHT22;10102;50.828;4.416;2024-02-14T07:17:45;11.60;99.90
19880;DHT22;10102;50.828;4.416;2024-02-14T07:22:38;11.70;99.90
19880;DHT22;10102;50.828;4.416;2024-02-14T07:25:04;11.60;99.90
19880;DHT22;10102;50.828;4.416;2024-02-14T07:27:31;11.40;99.90
19880;DHT22;10102;50.828;4.416;2024-02-14T07:37:15;11.60;99.90
19880;DHT22;10102;50.828;4.416;2024-02-14T07:39:43;11.60;99.90
19880;DHT22;10102;50.828;4.416;2024-02-14T07:42:10;11.60;99.90
19880;DHT22;10102;50.828;4.416;2024-02-14T07:44:35;11.50;99.90
19880;DHT22;10102;50.828;4.416;2024-02-14T07:47:01;11.50;99.90
19880;DHT22;10102;50.828;4.416;2024-02-14T07:49:27;11.60;99.90
19880;DHT22;10102;50.828;4.416;2024-02-14T07:51:53;11.60;99.90
19880;DHT22;10102;50.828;4.416;2024-02-14T07:54:18;11.70;99.90
19880;DHT22;10102;50.828;4.416;2024-02-14T07:56:44;11.90;99.90
19880;DHT22;10102;50.828;4.416;2024-02-14T08:04:02;11.80;99.90
19880;DHT22;10102;50.828;4.416;2024-02-14T08:06:29;11.70;99.90
19880;DHT22;10102;50.828;4.416;2024-02-14T08:08:55;11.60;99.90
19880;DHT22;10102;50.828;4.416;2024-02-14T08:11:24;11.80;99.90
19880;DHT22;10102;50.828;4.416;2024-02-14T08:16:16;12.00;99.90
19880;DHT22;10102;50.828;4.416;2024-02-14T08:18:42;11.90;99.90
19880;DHT22;10102;50.828;4.416;2024-02-14T08:21:09;12.00;99.90
19880;DHT22;10102;50.828;4.416;2024-02-14T08:23:36;12.00;99.90
19880;DHT22;10102;50.828;4.416;2024-02-14T08:26:04;11.80;99.90
19880;DHT22;10102;50.828;4.416;2024-02-14T08:28:36;11.90;99.90
19880;DHT22;10102;50.828;4.416;2024-02-14T08:33:28;11.90;99.90
19880;DHT22;10102;50.828;4.416;2024-02-14T08:35:54;11.90;99.90
19880;DHT22;10102;50.828;4.416;2024-02-14T08:38:22;11.70;99.90
19880;DHT22;10102;50.828;4.416;2024-02-14T08:40:48;12.00;99.90
19880;DHT22;10102;50.828;4.416;2024-02-14T08:43:14;12.00;99.90
19880;DHT22;10102;50.828;4.416;2024-02-14T08:45:40;12.10;99.90
19880;DHT22;10102;50.828;4.416;2024-02-14T08:48:07;12.10;99.90
19880;DHT22;10102;50.828;4.416;2024-02-14T08:50:32;12.10;99.90
19880;DHT22;10102;50.828;4.416;2024-02-14T08:52:58;12.20;99.90
19880;DHT22;10102;50.828;4.416;2024-02-14T08:55:24;12.30;99.90
19880;DHT22;10102;50.828;4.416;2024-02-14T08:57:49;12.20;99.90
19880;DHT22;10102;50.828;4.416;2024-02-14T09:02:45;12.60;99.90
19880;DHT22;10102;50.828;4.416;2024-02-14T09:05:13;12.40;99.90
19880;DHT22;10102;50.828;4.416;2024-02-14T09:10:07;12.40;99.90
19880;DHT22;10102;50.828;4.416;2024-02-14T09:12:33;12.30;99.90
19880;DHT22;10102;50.828;4.416;2024-02-14T09:14:59;12.30;99.90
19880;DHT22;10102;50.828;4.416;2024-02-14T09:17:24;12.40;99.90
19880;DHT22;10102;50.828;4.416;2024-02-14T09:19:50;12.30;99.90
19880;DHT22;10102;50.828;4.416;2024-02-14T09:22:17;12.20;99.90
19880;DHT22;10102;50.828;4.416;2024-02-14T09:24:47;12.10;99.90
19880;DHT22;10102;50.828;4.416;2024-02-14T09:27:14;12.10;99.90
19880;DHT22;10102;50.828;4.416;2024-02-14T09:32:05;12.50;99.90
19880;DHT22;10102;50.828;4.416;2024-02-14T09:34:31;12.20;99.90
19880;DHT22;10102;50.828;4.416;2024-02-14T09:36:57;12.20;99.90
19880;DHT22;10102;50.828;4.416;2024-02-14T09:39:24;12.20;99.90
19880;DHT22;10102;50.828;4.416;2024-02-14T09:41:56;12.10;99.90
19880;DHT22;10102;50.828;4.416;2024-02-14T09:44:27;12.00;99.90
19880;DHT22;10102;50.828;4.416;2024-02-14T09:46:55;12.00;99.90
19880;DHT22;10102;50.828;4.416;2024-02-14T09:49:21;11.80;99.90
19880;DHT22;10102;50.828;4.416;2024-02-14T09:51:48;12.00;99.90
19880;DHT22;10102;50.828;4.416;2024-02-14T09:54:16;11.70;99.90
19880;DHT22;10102;50.828;4.416;2024-02-14T09:56:52;12.10;99.90
19880;DHT22;10102;50.828;4.416;2024-02-14T09:59:23;12.10;99.90
19880;DHT22;10102;50.828;4.416;2024-02-14T10:01:49;12.00;99.90
19880;DHT22;10102;50.828;4.416;2024-02-14T10:04:17;12.00;99.90
19880;DHT22;10102;50.828;4.416;2024-02-14T10:06:44;12.10;99.90
19880;DHT22;10102;50.828;4.416;2024-02-14T10:09:10;12.00;99.90
19880;DHT22;10102;50.828;4.416;2024-02-14T10:11:37;12.00;99.90
19880;DHT22;10102;50.828;4.416;2024-02-14T10:14:05;12.20;99.90
19880;DHT22;10102;50.828;4.416;2024-02-14T10:16:35;12.00;99.90
19880;DHT22;10102;50.828;4.416;2024-02-14T10:19:01;12.00;99.90
19880;DHT22;10102;50.828;4.416;2024-02-14T10:21:27;12.10;99.90
19880;DHT22;10102;50.828;4.416;2024-02-14T10:23:54;12.20;99.90
19880;DHT22;10102;50.828;4.416;2024-02-14T10:26:23;12.20;99.90
19880;DHT22;10102;50.828;4.416;2024-02-14T10:28:50;12.30;99.90
19880;DHT22;10102;50.828;4.416;2024-02-14T10:31:19;12.30;99.90
19880;DHT22;10102;50.828;4.416;2024-02-14T10:33:46;12.40;99.90
19880;DHT22;10102;50.828;4.416;2024-02-14T10:36:12;12.40;99.90
19880;DHT22;10102;50.828;4.416;2024-02-14T10:38:40;12.30;99.90
19880;DHT22;10102;50.828;4.416;2024-02-14T10:41:13;12.40;99.90
19880;DHT22;10102;50.828;4.416;2024-02-14T10:43:40;12.50;99.90
19880;DHT22;10102;50.828;4.416;2024-02-14T10:46:09;12.40;99.90
19880;DHT22;10102;50.828;4.416;2024-02-14T10:48:38;12.10;99.90
19880;DHT22;10102;50.828;4.416;2024-02-14T10:51:05;12.50;99.90
19880;DHT22;10102;50.828;4.416;2024-02-14T10:53:33;12.50;99.90
19880;DHT22;10102;50.828;4.416;2024-02-14T10:56:00;12.50;99.90
19880;DHT22;10102;50.828;4.416;2024-02-14T10:58:28;12.40;99.90
19880;DHT22;10102;50.828;4.416;2024-02-14T11:00:55;12.40;99.90
19880;DHT22;10102;50.828;4.416;2024-02-14T11:03:22;12.20;99.90
19880;DHT22;10102;50.828;4.416;2024-02-14T11:05:48;12.30;99.90
19880;DHT22;10102;50.828;4.416;2024-02-14T11:08:21;12.40;99.90
19880;DHT22;10102;50.828;4.416;2024-02-14T11:10:56;12.60;99.90
19880;DHT22;10102;50.828;4.416;2024-02-14T11:13:28;13.00;99.90
19880;DHT22;10102;50.828;4.416;2024-02-14T11:15:54;12.60;99.90
19880;DHT22;10102;50.828;4.416;2024-02-14T11:18:27;12.40;99.90
19880;DHT22;10102;50.828;4.416;2024-02-14T11:20:56;12.50;99.90
19880;DHT22;10102;50.828;4.416;2024-02-14T11:23:23;12.60;99.90
19880;DHT22;10102;50.828;4.416;2024-02-14T11:25:49;12.60;99.90
19880;DHT22;10102;50.828;4.416;2024-02-14T11:28:19;12.50;99.90
19880;DHT22;10102;50.828;4.416;2024-02-14T11:33:22;12.60;99.90
19880;DHT22;10102;50.828;4.416;2024-02-14T11:35:53;12.60;99.90
19880;DHT22;10102;50.828;4.416;2024-02-14T11:38:22;12.60;99.90
19880;DHT22;10102;50.828;4.416;2024-02-14T11:40:53;12.80;99.90
19880;DHT22;10102;50.828;4.416;2024-02-14T11:43:20;12.20;99.90
19880;DHT22;10102;50.828;4.416;2024-02-14T11:45:46;12.40;99.90
19880;DHT22;10102;50.828;4.416;2024-02-14T11:48:15;13.00;99.90
19880;DHT22;10102;50.828;4.416;2024-02-14T11:50:51;12.60;99.90
19880;DHT22;10102;50.828;4.416;2024-02-14T11:53:18;12.60;99.90
19880;DHT22;10102;50.828;4.416;2024-02-14T11:55:45;12.60;99.90
19880;DHT22;10102;50.828;4.416;2024-02-14T11:58:15;12.60;99.90
19880;DHT22;10102;50.828;4.416;2024-02-14T12:00:43;12.60;99.90
19880;DHT22;10102;50.828;4.416;2024-02-14T12:03:24;12.60;99.90
19880;DHT22;10102;50.828;4.416;2024-02-14T12:05:52;12.70;99.90
19880;DHT22;10102;50.828;4.416;2024-02-14T12:10:45;12.90;99.90
19880;DHT22;10102;50.828;4.416;2024-02-14T12:13:16;12.90;99.90
19880;DHT22;10102;50.828;4.416;2024-02-14T12:15:45;12.70;99.90
19880;DHT22;10102;50.828;4.416;2024-02-14T12:18:11;13.20;99.90
19880;DHT22;10102;50.828;4.416;2024-02-14T12:20:41;13.00;99.90
19880;DHT22;10102;50.828;4.416;2024-02-14T12:25:34;13.20;99.90
19880;DHT22;10102;50.828;4.416;2024-02-14T12:33:14;13.20;99.90
19880;DHT22;10102;50.828;4.416;2024-02-14T12:35:44;13.20;99.90
19880;DHT22;10102;50.828;4.416;2024-02-14T12:38:11;13.50;99.90
19880;DHT22;10102;50.828;4.416;2024-02-14T12:40:38;13.30;99.90
19880;DHT22;10102;50.828;4.416;2024-02-14T12:45:31;13.40;99.90
19880;DHT22;10102;50.828;4.416;2024-02-14T12:47:57;13.70;99.90
19880;DHT22;10102;50.828;4.416;2024-02-14T12:50:23;13.40;99.90
19880;DHT22;10102;50.828;4.416;2024-02-14T12:55:14;13.50;99.90
19880;DHT22;10102;50.828;4.416;2024-02-14T12:57:40;13.40;99.90
19880;DHT22;10102;50.828;4.416;2024-02-14T13:00:06;13.40;99.90
19880;DHT22;10102;50.828;4.416;2024-02-14T13:02:37;13.30;99.90
19880;DHT22;10102;50.828;4.416;2024-02-14T13:05:06;13.30;99.90
19880;DHT22;10102;50.828;4.416;2024-02-14T13:07:33;13.40;99.90
19880;DHT22;10102;50.828;4.416;2024-02-14T13:09:59;13.40;99.90
19880;DHT22;10102;50.828;4.416;2024-02-14T13:12:26;13.30;99.90
19880;DHT22;10102;50.828;4.416;2024-02-14T13:14:51;13.00;99.90
19880;DHT22;10102;50.828;4.416;2024-02-14T13:17:17;13.00;99.90
19880;DHT22;10102;50.828;4.416;2024-02-14T13:19:43;13.20;99.90
19880;DHT22;10102;50.828;4.416;2024-02-14T13:22:09;13.20;99.90
19880;DHT22;10102;50.828;4.416;2024-02-14T13:24:35;13.10;99.90
19880;DHT22;10102;50.828;4.416;2024-02-14T13:27:01;13.10;99.90
19880;DHT22;10102;50.828;4.416;2024-02-14T13:29:27;13.10;99.90
19880;DHT22;10102;50.828;4.416;2024-02-14T13:31:53;13.00;99.90
19880;DHT22;10102;50.828;4.416;2024-02-14T13:34:19;13.10;99.90
19880;DHT22;10102;50.828;4.416;2024-02-14T13:36:48;13.10;99.90
19880;DHT22;10102;50.828;4.416;2024-02-14T13:39:14;13.10;99.90
19880;DHT22;10102;50.828;4.416;2024-02-14T13:41:40;13.10;99.90
19880;DHT22;10102;50.828;4.416;2024-02-14T13:44:09;13.20;99.90
19880;DHT22;10102;50.828;4.416;2024-02-14T13:46:36;13.20;99.90
19880;DHT22;10102;50.828;4.416;2024-02-14T13:49:02;13.10;99.90
19880;DHT22;10102;50.828;4.416;2024-02-14T13:51:27;12.70;99.90
19880;DHT22;10102;50.828;4.416;2024-02-14T13:53:53;13.00;99.90
19880;DHT22;10102;50.828;4.416;2024-02-14T13:56:19;13.20;99.90
19880;DHT22;10102;50.828;4.416;2024-02-14T13:58:48;13.10;99.90
19880;DHT22;10102;50.828;4.416;2024-02-14T14:01:17;13.20;99.90
19880;DHT22;10102;50.828;4.416;2024-02-14T14:03:43;13.20;99.90
19880;DHT22;10102;50.828;4.416;2024-02-14T14:06:08;13.10;99.90
19880;DHT22;10102;50.828;4.416;2024-02-14T14:08:35;13.20;99.90
19880;DHT22;10102;50.828;4.416;2024-02-14T14:11:02;13.20;99.90
19880;DHT22;10102;50.828;4.416;2024-02-14T14:15:57;13.30;99.90
19880;DHT22;10102;50.828;4.416;2024-02-14T14:18:22;13.30;99.90
19880;DHT22;10102;50.828;4.416;2024-02-14T14:20:49;13.20;99.90
19880;DHT22;10102;50.828;4.416;2024-02-14T14:23:14;13.30;99.90
19880;DHT22;10102;50.828;4.416;2024-02-14T14:25:40;13.60;99.90
19880;DHT22;10102;50.828;4.416;2024-02-14T14:28:06;13.30;99.90
19880;DHT22;10102;50.828;4.416;2024-02-14T14:30:32;13.40;99.90
19880;DHT22;10102;50.828;4.416;2024-02-14T14:32:58;13.30;99.90
19880;DHT22;10102;50.828;4.416;2024-02-14T14:35:23;13.00;99.90
19880;DHT22;10102;50.828;4.416;2024-02-14T14:37:49;13.00;99.90
19880;DHT22;10102;50.828;4.416;2024-02-14T14:40:15;13.40;99.90
19880;DHT22;10102;50.828;4.416;2024-02-14T14:42:41;13.40;99.90
19880;DHT22;10102;50.828;4.416;2024-02-14T14:45:07;13.50;99.90
19880;DHT22;10102;50.828;4.416;2024-02-14T14:47:32;13.40;99.90
19880;DHT22;10102;50.828;4.416;2024-02-14T14:52:25;13.30;99.90
19880;DHT22;10102;50.828;4.416;2024-02-14T14:54:51;13.30;99.90
19880;DHT22;10102;50.828;4.416;2024-02-14T14:57:16;13.40;99.90
19880;DHT22;10102;50.828;4.416;2024-02-14T14:59:42;13.40;99.90
19880;DHT22;10102;50.828;4.416;2024-02-14T15:02:08;13.60;99.90
19880;DHT22;10102;50.828;4.416;2024-02-14T15:04:34;13.50;99.90
19880;DHT22;10102;50.828;4.416;2024-02-14T15:07:02;13.40;99.90
19880;DHT22;10102;50.828;4.416;2024-02-14T15:09:27;13.50;99.90
19880;DHT22;10102;50.828;4.416;2024-02-14T15:11:53;13.50;99.90
19880;DHT22;10102;50.828;4.416;2024-02-14T15:14:19;13.50;99.90
19880;DHT22;10102;50.828;4.416;2024-02-14T15:16:45;13.60;99.90
19880;DHT22;10102;50.828;4.416;2024-02-14T15:19:10;13.40;99.90
19880;DHT22;10102;50.828;4.416;2024-02-14T15:21:36;13.50;99.90
19880;DHT22;10102;50.828;4.416;2024-02-14T15:24:02;13.60;99.90
19880;DHT22;10102;50.828;4.416;2024-02-14T15:28:55;13.50;99.90
19880;DHT22;10102;50.828;4.416;2024-02-14T15:31:41;13.40;99.90
19880;DHT22;10102;50.828;4.416;2024-02-14T15:34:25;13.40;99.90
19880;DHT22;10102;50.828;4.416;2024-02-14T15:36:51;13.40;99.90
19880;DHT22;10102;50.828;4.416;2024-02-14T15:39:16;13.50;99.90
19880;DHT22;10102;50.828;4.416;2024-02-14T15:41:42;13.40;99.90
19880;DHT22;10102;50.828;4.416;2024-02-14T15:44:08;13.60;99.90
19880;DHT22;10102;50.828;4.416;2024-02-14T15:46:33;13.50;99.90
19880;DHT22;10102;50.828;4.416;2024-02-14T15:48:59;13.50;99.90
19880;DHT22;10102;50.828;4.416;2024-02-14T15:51:25;13.60;99.90
19880;DHT22;10102;50.828;4.416;2024-02-14T15:53:52;13.50;99.90
19880;DHT22;10102;50.828;4.416;2024-02-14T15:56:18;13.40;99.90
19880;DHT22;10102;50.828;4.416;2024-02-14T15:58:44;13.50;99.90
19880;DHT22;10102;50.828;4.416;2024-02-14T16:01:10;13.50;99.90
19880;DHT22;10102;50.828;4.416;2024-02-14T16:03:36;13.50;99.90
19880;DHT22;10102;50.828;4.416;2024-02-14T16:06:01;13.60;99.90
19880;DHT22;10102;50.828;4.416;2024-02-14T16:08:27;13.80;99.90
19880;DHT22;10102;50.828;4.416;2024-02-14T16:10:53;13.40;99.90
19880;DHT22;10102;50.828;4.416;2024-02-14T16:13:21;13.50;99.90
19880;DHT22;10102;50.828;4.416;2024-02-14T16:15:48;13.50;99.90
19880;DHT22;10102;50.828;4.416;2024-02-14T16:18:13;13.60;99.90
19880;DHT22;10102;50.828;4.416;2024-02-14T16:20:39;13.80;99.90
19880;DHT22;10102;50.828;4.416;2024-02-14T16:23:05;13.70;99.90
19880;DHT22;10102;50.828;4.416;2024-02-14T16:28:04;13.60;99.90
19880;DHT22;10102;50.828;4.416;2024-02-14T16:30:29;13.60;99.90
19880;DHT22;10102;50.828;4.416;2024-02-14T16:32:55;14.00;99.90
19880;DHT22;10102;50.828;4.416;2024-02-14T16:35:21;13.50;99.90
19880;DHT22;10102;50.828;4.416;2024-02-14T16:37:47;13.60;99.90
19880;DHT22;10102;50.828;4.416;2024-02-14T16:40:12;13.20;99.90
19880;DHT22;10102;50.828;4.416;2024-02-14T16:42:38;13.60;99.90
19880;DHT22;10102;50.828;4.416;2024-02-14T16:45:04;13.50;99.90
19880;DHT22;10102;50.828;4.416;2024-02-14T16:47:32;13.50;99.90
19880;DHT22;10102;50.828;4.416;2024-02-14T16:50:00;14.10;99.90
19880;DHT22;10102;50.828;4.416;2024-02-14T16:52:26;13.70;99.90
19880;DHT22;10102;50.828;4.416;2024-02-14T16:54:52;13.70;99.90
19880;DHT22;10102;50.828;4.416;2024-02-14T16:57:17;13.50;99.90
19880;DHT22;10102;50.828;4.416;2024-02-14T16:59:43;14.00;99.90
19880;DHT22;10102;50.828;4.416;2024-02-14T17:02:12;13.70;99.90
19880;DHT22;10102;50.828;4.416;2024-02-14T17:04:39;13.50;99.90
19880;DHT22;10102;50.828;4.416;2024-02-14T17:07:05;13.50;99.90
19880;DHT22;10102;50.828;4.416;2024-02-14T17:09:31;13.60;99.90
19880;DHT22;10102;50.828;4.416;2024-02-14T17:11:57;13.70;99.90
19880;DHT22;10102;50.828;4.416;2024-02-14T17:14:23;13.70;99.90
19880;DHT22;10102;50.828;4.416;2024-02-14T17:16:52;13.60;99.90
19880;DHT22;10102;50.828;4.416;2024-02-14T17:19:23;13.50;99.90
19880;DHT22;10102;50.828;4.416;2024-02-14T17:21:50;13.70;99.90
19880;DHT22;10102;50.828;4.416;2024-02-14T17:24:16;13.60;99.90
19880;DHT22;10102;50.828;4.416;2024-02-14T17:26:41;13.50;99.90
19880;DHT22;10102;50.828;4.416;2024-02-14T17:29:07;13.70;99.90
19880;DHT22;10102;50.828;4.416;2024-02-14T17:31:36;13.80;99.90
19880;DHT22;10102;50.828;4.416;2024-02-14T17:34:03;14.00;99.90
19880;DHT22;10102;50.828;4.416;2024-02-14T17:36:29;13.80;99.90
19880;DHT22;10102;50.828;4.416;2024-02-14T17:38:55;13.80;99.90
19880;DHT22;10102;50.828;4.416;2024-02-14T17:41:27;13.80;99.90
19880;DHT22;10102;50.828;4.416;2024-02-14T17:43:53;13.70;99.90
19880;DHT22;10102;50.828;4.416;2024-02-14T17:46:20;13.30;99.90
19880;DHT22;10102;50.828;4.416;2024-02-14T17:48:46;13.70;99.90
19880;DHT22;10102;50.828;4.416;2024-02-14T17:53:40;13.80;99.90
19880;DHT22;10102;50.828;4.416;2024-02-14T17:56:06;13.90;99.90
19880;DHT22;10102;50.828;4.416;2024-02-14T17:58:32;13.90;99.90
19880;DHT22;10102;50.828;4.416;2024-02-14T18:00:58;13.80;99.90
19880;DHT22;10102;50.828;4.416;2024-02-14T18:03:26;13.80;99.90
19880;DHT22;10102;50.828;4.416;2024-02-14T18:05:52;13.60;99.90